createdAt,value
2023-01-11T00:00:26.755Z,3.78
2023-01-11T00:02:57.637Z,3.83
2023-01-11T00:05:24.447Z,3.88
2023-01-11T00:07:50.811Z,3.91
2023-01-11T00:10:17.751Z,3.93
2023-01-11T00:12:44.558Z,3.95
2023-01-11T00:15:11.114Z,4.01
2023-01-11T00:17:37.468Z,3.98
2023-01-11T00:20:04.413Z,4.00
2023-01-11T00:22:30.822Z,4.03
2023-01-11T00:24:57.104Z,4.01
2023-01-11T00:27:23.425Z,3.99
2023-01-11T00:29:49.861Z,4.01
2023-01-11T00:32:16.148Z,4.03
2023-01-11T00:34:42.477Z,4.04
2023-01-11T00:37:08.759Z,4.01
2023-01-11T00:39:35.049Z,4.05
2023-01-11T00:42:01.353Z,4.00
2023-01-11T00:44:27.687Z,3.93
2023-01-11T00:46:54.104Z,3.94
2023-01-11T00:49:20.549Z,3.92
2023-01-11T00:51:47.817Z,3.93
2023-01-11T00:54:14.233Z,3.96
2023-01-11T00:56:40.870Z,3.93
2023-01-11T00:59:07.436Z,3.92
2023-01-11T01:01:33.834Z,3.93
2023-01-11T01:04:02.306Z,3.95
2023-01-11T01:06:29.166Z,3.99
2023-01-11T01:08:55.923Z,4.01
2023-01-11T01:11:22.484Z,4.03
2023-01-11T01:13:48.932Z,4.06
2023-01-11T01:16:15.218Z,4.08
2023-01-11T01:18:41.575Z,4.01
2023-01-11T01:21:07.861Z,4.01
2023-01-11T01:23:34.165Z,3.99
2023-01-11T01:26:03.745Z,4.02
2023-01-11T01:28:30.336Z,4.03
2023-01-11T01:30:56.702Z,4.05
2023-01-11T01:33:23.517Z,4.05
2023-01-11T01:35:49.878Z,4.08
2023-01-11T01:38:17.336Z,4.06
2023-01-11T01:40:45.448Z,4.07
2023-01-11T01:43:13.129Z,4.06
2023-01-11T01:45:39.755Z,4.08
2023-01-11T01:48:06.489Z,4.09
2023-01-11T01:50:41.927Z,4.06
2023-01-11T01:53:13.604Z,4.08
2023-01-11T01:55:45.629Z,4.08
2023-01-11T01:58:15.561Z,4.10
2023-01-11T02:00:44.515Z,4.07
2023-01-11T02:03:17.094Z,4.09
2023-01-11T02:05:43.383Z,4.05
2023-01-11T02:08:17.741Z,4.03
2023-01-11T02:10:44.118Z,4.00
2023-01-11T02:13:12.285Z,4.04
2023-01-11T02:15:38.763Z,4.00
2023-01-11T02:18:10.113Z,4.04
2023-01-11T02:21:17.814Z,4.04
2023-01-11T02:24:21.428Z,4.07
2023-01-11T02:27:10.305Z,4.13
2023-01-11T02:29:49.458Z,4.12
2023-01-11T02:32:37.572Z,4.12
2023-01-11T02:35:09.876Z,4.10
2023-01-11T02:37:45.228Z,4.14
2023-01-11T02:40:41.994Z,4.17
2023-01-11T02:43:18.535Z,4.13
2023-01-11T02:46:05.195Z,4.17
2023-01-11T02:48:49.472Z,4.19
2023-01-11T02:51:22.225Z,4.24
2023-01-11T02:53:58.732Z,4.23
2023-01-11T02:56:29.598Z,4.22
2023-01-11T02:58:57.128Z,4.23
2023-01-11T03:01:23.591Z,4.22
2023-01-11T03:03:50.463Z,4.24
2023-01-11T03:06:28.615Z,4.26
2023-01-11T03:09:10.247Z,4.25
2023-01-11T03:12:01.389Z,4.30
2023-01-11T03:14:46.081Z,4.37
2023-01-11T03:17:33.785Z,4.46
2023-01-11T03:20:14.688Z,4.53
2023-01-11T03:22:57.046Z,4.54
2023-01-11T03:25:46.085Z,4.55
2023-01-11T03:28:36.512Z,4.54
2023-01-11T03:31:14.880Z,4.56
2023-01-11T03:34:08.823Z,4.54
2023-01-11T03:37:00.347Z,4.60
2023-01-11T03:39:34.983Z,4.67
2023-01-11T03:42:04.115Z,4.64
2023-01-11T03:44:38.925Z,4.64
2023-01-11T03:47:09.194Z,4.57
2023-01-11T03:50:02.098Z,4.62
2023-01-11T03:52:34.429Z,4.64
2023-01-11T03:55:03.992Z,4.58
2023-01-11T03:57:37.689Z,4.62
2023-01-11T04:00:05.810Z,4.63
2023-01-11T04:02:41.333Z,4.68
2023-01-11T04:05:10.232Z,4.72
2023-01-11T04:07:36.643Z,4.69
2023-01-11T04:10:03.733Z,4.69
2023-01-11T04:12:30.133Z,4.69
2023-01-11T04:14:56.456Z,4.69
2023-01-11T04:17:22.864Z,4.66
2023-01-11T04:19:49.168Z,4.69
2023-01-11T04:22:15.527Z,4.70
2023-01-11T04:24:41.831Z,4.73
2023-01-11T04:27:08.236Z,4.69
2023-01-11T04:29:34.535Z,4.71
2023-01-11T04:32:01.003Z,4.69
2023-01-11T04:34:27.332Z,4.72
2023-01-11T04:36:53.636Z,4.68
2023-01-11T04:39:19.945Z,4.68
2023-01-11T04:41:46.276Z,4.66
2023-01-11T04:44:12.680Z,4.71
2023-01-11T04:46:38.986Z,4.75
2023-01-11T04:49:05.331Z,4.78
2023-01-11T04:51:31.820Z,4.71
2023-01-11T04:53:58.146Z,4.67
2023-01-11T04:56:24.684Z,4.68
2023-01-11T04:58:50.975Z,4.68
2023-01-11T05:01:19.066Z,4.67
2023-01-11T05:03:46.136Z,4.71
2023-01-11T05:06:13.079Z,4.67
2023-01-11T05:08:39.659Z,4.70
2023-01-11T05:11:08.026Z,4.69
2023-01-11T05:13:34.478Z,4.73
2023-01-11T05:16:00.769Z,4.72
2023-01-11T05:18:27.062Z,4.75
2023-01-11T05:20:53.348Z,4.78
2023-01-11T05:23:19.642Z,4.79
2023-01-11T05:25:46.218Z,4.84
2023-01-11T05:28:12.531Z,4.78
2023-01-11T05:30:38.799Z,4.81
2023-01-11T05:33:05.128Z,4.84
2023-01-11T05:35:31.424Z,4.86
2023-01-11T05:37:57.734Z,4.90
2023-01-11T05:40:24.129Z,4.92
2023-01-11T05:42:50.411Z,4.97
2023-01-11T05:45:16.977Z,4.89
2023-01-11T05:47:43.277Z,4.93
2023-01-11T05:50:10.125Z,4.96
2023-01-11T05:52:36.972Z,5.02
2023-01-11T05:55:03.581Z,5.08
2023-01-11T05:57:29.864Z,5.00
2023-01-11T05:59:56.245Z,5.06
2023-01-11T06:02:22.606Z,5.07
2023-01-11T06:04:48.960Z,5.10
2023-01-11T06:07:15.297Z,5.14
2023-01-11T06:09:41.574Z,5.16
2023-01-11T06:12:07.962Z,5.19
2023-01-11T06:14:35.898Z,5.20
2023-01-11T06:17:08.169Z,5.24
2023-01-11T06:19:42.210Z,5.29
2023-01-11T06:22:08.546Z,5.34
2023-01-11T06:24:37.798Z,5.35
2023-01-11T06:27:04.203Z,5.35
2023-01-11T06:29:30.496Z,5.32
2023-01-11T06:31:56.826Z,5.30
2023-01-11T06:34:23.193Z,5.40
2023-01-11T06:36:49.496Z,5.45
2023-01-11T06:39:15.803Z,5.57
2023-01-11T06:41:42.123Z,5.64
2023-01-11T06:44:08.419Z,5.73
2023-01-11T06:46:34.721Z,5.77
2023-01-11T06:49:02.166Z,5.81
2023-01-11T06:51:28.649Z,5.83
2023-01-11T06:53:55.003Z,5.82
2023-01-11T06:56:21.341Z,5.80
2023-01-11T06:58:48.212Z,5.83
2023-01-11T07:01:15.068Z,5.82
2023-01-11T07:03:41.649Z,5.80
2023-01-11T07:06:08.008Z,5.83
2023-01-11T07:08:34.346Z,5.82
2023-01-11T07:11:00.682Z,5.83
2023-01-11T07:13:27.142Z,5.79
2023-01-11T07:15:57.183Z,5.74
2023-01-11T07:18:23.558Z,5.78
2023-01-11T07:20:51.141Z,5.77
2023-01-11T07:23:17.447Z,5.80
2023-01-11T07:25:43.868Z,5.86
2023-01-11T07:28:10.314Z,5.89
2023-01-11T07:30:56.193Z,5.91
2023-01-11T07:33:24.704Z,5.94
2023-01-11T07:35:51.337Z,5.95
2023-01-11T07:38:17.649Z,5.94
2023-01-11T07:40:44.165Z,6.00
2023-01-11T07:43:12.956Z,6.05
2023-01-11T07:45:45.898Z,6.10
2023-01-11T07:48:12.881Z,6.17
2023-01-11T07:50:41.206Z,6.23
2023-01-11T07:53:09.053Z,6.28
2023-01-11T07:55:36.093Z,6.29
2023-01-11T07:58:02.501Z,6.35
2023-01-11T08:00:29.018Z,6.39
2023-01-11T08:02:55.495Z,6.39
2023-01-11T08:05:23.297Z,6.44
2023-01-11T08:07:49.686Z,6.46
2023-01-11T08:10:16.438Z,6.49
2023-01-11T08:12:47.118Z,6.53
2023-01-11T08:15:13.515Z,6.51
2023-01-11T08:17:40.147Z,6.55
2023-01-11T08:20:06.957Z,6.64
2023-01-11T08:22:34.042Z,6.72
2023-01-11T08:25:00.324Z,6.82
2023-01-11T08:27:26.717Z,6.88
2023-01-11T08:29:53.010Z,6.96
2023-01-11T08:32:19.515Z,7.04
2023-01-11T08:34:45.794Z,7.07
2023-01-11T08:37:12.095Z,7.09
2023-01-11T08:39:38.404Z,7.21
2023-01-11T08:42:04.695Z,7.28
2023-01-11T08:44:34.825Z,7.29
2023-01-11T08:47:02.872Z,7.35
2023-01-11T08:49:29.246Z,7.38
2023-01-11T08:51:55.848Z,7.41
2023-01-11T08:54:22.244Z,7.47
2023-01-11T08:56:48.636Z,7.53
2023-01-11T08:59:15.043Z,7.60
2023-01-11T09:01:41.429Z,7.62
2023-01-11T09:04:23.191Z,7.58
2023-01-11T09:06:51.163Z,7.61
2023-01-11T09:09:17.574Z,7.66
2023-01-11T09:11:43.878Z,7.62
2023-01-11T09:14:10.161Z,7.65
2023-01-11T09:16:36.467Z,7.72
2023-01-11T09:19:02.771Z,7.73
2023-01-11T09:21:29.066Z,7.79
2023-01-11T09:23:56.595Z,7.82
2023-01-11T09:26:22.892Z,7.80
2023-01-11T09:28:49.233Z,7.84
2023-01-11T09:31:15.567Z,7.84
2023-01-11T09:33:41.921Z,7.90
2023-01-11T09:36:08.295Z,7.96
2023-01-11T09:38:34.663Z,7.98
2023-01-11T09:41:30.604Z,7.99
2023-01-11T09:44:07.929Z,8.00
2023-01-11T09:46:34.841Z,8.06
2023-01-11T09:49:01.282Z,8.13
2023-01-11T09:51:36.297Z,8.17
2023-01-11T09:54:02.957Z,8.16
2023-01-11T09:56:37.244Z,8.20
2023-01-11T09:59:28.272Z,8.24
2023-01-11T10:02:02.920Z,8.31
2023-01-11T10:04:49.490Z,8.41
2023-01-11T10:07:24.092Z,8.47
2023-01-11T10:18:26.729Z,8.54
2023-01-11T10:19:31.479Z,8.56
2023-01-11T10:21:56.561Z,8.64
2023-01-11T10:24:31.314Z,8.73
2023-01-11T10:27:00.961Z,8.78
2023-01-11T10:29:41.313Z,8.87
2023-01-11T10:32:33.801Z,8.91
2023-01-11T10:35:11.334Z,9.05
2023-01-11T10:37:39.868Z,9.12
2023-01-11T10:40:09.284Z,9.21
2023-01-11T10:42:50.186Z,9.21
2023-01-11T10:45:26.603Z,9.25
2023-01-11T10:48:21.045Z,9.30
2023-01-11T10:50:58.159Z,9.36
2023-01-11T10:53:43.023Z,9.38
2023-01-11T10:56:42.951Z,9.39
2023-01-11T10:59:56.705Z,9.43
2023-01-11T11:03:04.201Z,9.49
2023-01-11T11:05:34.655Z,9.55
2023-01-11T11:08:17.232Z,9.58
2023-01-11T11:10:52.763Z,9.54
2023-01-11T11:13:53.731Z,9.60
2023-01-11T11:16:23.193Z,9.60
2023-01-11T11:18:55.452Z,9.67
2023-01-11T11:21:26.425Z,9.74
2023-01-11T11:23:58.203Z,9.79
2023-01-11T11:26:29.727Z,9.77
2023-01-11T11:29:06.458Z,9.80
2023-01-11T11:31:36.925Z,9.77
2023-01-11T11:34:08.893Z,9.67
2023-01-11T11:36:46.194Z,9.64
2023-01-11T11:39:25.367Z,9.69
2023-01-11T11:42:06.576Z,9.72
2023-01-11T11:44:33.112Z,9.69
2023-01-11T11:46:59.326Z,9.65
2023-01-11T11:49:26.091Z,9.64
2023-01-11T11:51:53.763Z,9.63
2023-01-11T11:54:44.906Z,9.62
2023-01-11T11:57:22.212Z,9.56
2023-01-11T11:59:50.376Z,9.50
2023-01-11T12:02:29.619Z,9.49
2023-01-11T12:04:58.140Z,9.43
2023-01-11T12:07:29.181Z,9.40
2023-01-11T12:10:01.748Z,9.35
2023-01-11T12:12:29.645Z,9.34
2023-01-11T12:15:18.496Z,9.34
2023-01-11T12:17:45.305Z,9.33
2023-01-11T12:20:23.614Z,9.31
2023-01-11T12:23:07.700Z,9.33
2023-01-11T12:25:41.401Z,9.30
2023-01-11T12:28:26.205Z,9.33
2023-01-11T12:31:16.571Z,9.23
2023-01-11T12:34:20.234Z,9.21
2023-01-11T12:37:03.466Z,9.23
2023-01-11T12:39:51.657Z,9.25
2023-01-11T12:42:42.138Z,9.22
2023-01-11T12:45:44.431Z,9.20
2023-01-11T12:48:23.471Z,9.20
2023-01-11T12:51:01.633Z,9.17
2023-01-11T12:53:45.510Z,9.08
2023-01-11T12:56:37.040Z,9.01
2023-01-11T12:59:28.878Z,8.95
2023-01-11T13:01:55.125Z,8.91
2023-01-11T13:04:49.381Z,8.88
2023-01-11T13:07:37.629Z,8.88
2023-01-11T13:10:20.914Z,8.88
2023-01-11T13:13:04.381Z,8.86
2023-01-11T13:15:46.242Z,8.82
2023-01-11T13:18:32.807Z,8.79
2023-01-11T13:21:31.935Z,8.75
2023-01-11T13:24:24.319Z,8.76
2023-01-11T13:26:53.880Z,8.77
2023-01-11T13:29:28.011Z,8.77
2023-01-11T13:31:57.416Z,8.80
2023-01-11T13:34:30.466Z,8.82
2023-01-11T13:37:06.869Z,8.82
2023-01-11T13:39:48.093Z,8.84
2023-01-11T13:42:24.899Z,8.85
2023-01-11T13:45:07.203Z,8.78
2023-01-11T13:47:56.061Z,8.81
2023-01-11T13:50:31.827Z,8.84
2023-01-11T13:53:08.007Z,8.82
2023-01-11T13:55:40.227Z,8.77
2023-01-11T13:58:20.948Z,8.75
2023-01-11T14:00:59.946Z,8.63
2023-01-11T14:03:28.930Z,8.67
2023-01-11T14:06:20.002Z,8.68
2023-01-11T14:09:01.550Z,8.72
2023-01-11T14:11:51.424Z,8.74
2023-01-11T14:14:29.714Z,8.75
2023-01-11T14:17:21.177Z,8.81
2023-01-11T14:19:57.327Z,8.83
2023-01-11T14:22:47.545Z,8.85
2023-01-11T14:25:24.283Z,8.88
2023-01-11T14:28:06.776Z,8.88
2023-01-11T14:30:59.720Z,8.90
2023-01-11T14:33:43.307Z,8.88
2023-01-11T14:36:31.475Z,8.77
2023-01-11T14:39:17.391Z,8.74
2023-01-11T14:41:54.677Z,8.73
2023-01-11T14:44:26.793Z,8.74
2023-01-11T14:47:06.981Z,8.69
2023-01-11T14:49:36.166Z,8.63
2023-01-11T14:52:08.890Z,8.62
2023-01-11T14:54:39.451Z,8.63
2023-01-11T14:57:05.911Z,8.64
2023-01-11T14:59:40.338Z,8.61
2023-01-11T15:02:14.477Z,8.64
2023-01-11T15:04:52.951Z,8.69
2023-01-11T15:07:31.452Z,8.70
2023-01-11T15:10:04.220Z,8.69
2023-01-11T15:12:35.965Z,8.72
2023-01-11T15:15:12.837Z,8.72
2023-01-11T15:17:40.483Z,8.73
2023-01-11T15:20:13.229Z,8.76
2023-01-11T15:22:40.979Z,8.77
2023-01-11T15:25:23.672Z,8.77
2023-01-11T15:27:51.410Z,8.77
2023-01-11T15:30:30.077Z,8.78
2023-01-11T15:33:18.259Z,8.82
2023-01-11T15:35:56.675Z,8.82
2023-01-11T15:38:29.438Z,8.80
2023-01-11T15:40:58.232Z,8.80
2023-01-11T15:43:47.631Z,8.77
2023-01-11T15:46:48.035Z,8.78
2023-01-11T15:49:37.048Z,8.79
2023-01-11T15:52:21.930Z,8.78
2023-01-11T15:55:07.185Z,8.78
2023-01-11T15:57:56.373Z,8.77
2023-01-11T16:00:44.613Z,8.78
2023-01-11T16:03:49.875Z,8.81
2023-01-11T16:06:35.092Z,8.81
2023-01-11T16:09:15.289Z,8.77
2023-01-11T16:12:00.173Z,8.81
2023-01-11T16:14:48.253Z,8.79
2023-01-11T16:17:19.339Z,8.76
2023-01-11T16:19:45.620Z,8.78
2023-01-11T16:22:17.289Z,8.77
2023-01-11T16:24:47.298Z,8.82
2023-01-11T16:27:34.617Z,8.83
2023-01-11T16:30:01.938Z,8.82
2023-01-11T16:32:30.690Z,8.81
2023-01-11T16:34:57.033Z,8.80
2023-01-11T16:37:41.756Z,8.72
2023-01-11T16:40:15.302Z,8.72
2023-01-11T16:43:01.799Z,8.74
2023-01-11T16:45:42.161Z,8.71
2023-01-11T16:48:20.483Z,8.71
2023-01-11T16:51:03.928Z,8.67
2023-01-11T16:53:32.816Z,8.70
2023-01-11T16:56:21.353Z,8.70
2023-01-11T16:59:06.359Z,8.68
2023-01-11T17:01:56.090Z,8.70
2023-01-11T17:04:31.634Z,8.66
2023-01-11T17:07:13.421Z,8.60
2023-01-11T17:09:42.491Z,8.62
2023-01-11T17:12:17.463Z,8.61
2023-01-11T17:14:52.900Z,8.60
2023-01-11T17:17:20.294Z,8.53
2023-01-11T17:19:47.759Z,8.46
2023-01-11T17:22:20.664Z,8.50
2023-01-11T17:24:52.531Z,8.51
2023-01-11T17:27:22.612Z,8.50
2023-01-11T17:29:53.467Z,8.49
2023-01-11T17:32:45.175Z,8.54
2023-01-11T17:35:16.083Z,8.56
2023-01-11T17:37:48.020Z,8.58
2023-01-11T17:40:23.366Z,8.57
2023-01-11T17:42:50.169Z,8.57
2023-01-11T17:45:24.728Z,8.54
2023-01-11T17:47:53.026Z,8.53
2023-01-11T17:50:31.240Z,8.51
2023-01-11T17:53:03.335Z,8.48
2023-01-11T17:55:30.054Z,8.47
2023-01-11T17:58:44.042Z,8.44
2023-01-11T18:01:16.465Z,8.40
2023-01-11T18:03:57.181Z,8.37
2023-01-11T18:06:37.075Z,8.39
2023-01-11T18:09:06.582Z,8.43
2023-01-11T18:11:35.859Z,8.45
2023-01-11T18:14:05.592Z,8.48
2023-01-11T18:16:32.559Z,8.51
2023-01-11T18:18:59.467Z,8.53
2023-01-11T18:21:25.739Z,8.54
2023-01-11T18:24:10.499Z,8.52
2023-01-11T18:26:38.768Z,8.50
2023-01-11T18:29:05.407Z,8.46
2023-01-11T18:31:32.656Z,8.45
2023-01-11T18:33:59.347Z,8.40
2023-01-11T18:36:25.683Z,8.34
2023-01-11T18:38:52.108Z,8.30
2023-01-11T18:41:18.848Z,8.28
2023-01-11T18:43:45.164Z,8.25
2023-01-11T18:46:11.537Z,8.23
2023-01-11T18:48:37.931Z,8.24
2023-01-11T18:51:04.303Z,8.21
2023-01-11T18:53:30.603Z,8.18
2023-01-11T18:55:56.891Z,8.12
2023-01-11T18:58:23.172Z,8.08
2023-01-11T19:00:49.535Z,8.08
2023-01-11T19:05:47.043Z,7.99
2023-01-11T19:08:13.349Z,7.98
2023-01-11T19:10:39.837Z,7.94
2023-01-11T19:13:06.179Z,7.92
2023-01-11T19:15:34.740Z,7.89
2023-01-11T19:18:02.773Z,7.90
2023-01-11T19:20:29.161Z,7.88
2023-01-11T19:22:55.478Z,7.86
2023-01-11T19:25:21.860Z,7.83
2023-01-11T19:27:49.129Z,7.82
2023-01-11T19:30:16.051Z,7.76
2023-01-11T19:32:42.541Z,7.76
2023-01-11T19:35:09.237Z,7.73
2023-01-11T19:37:37.531Z,7.67
2023-01-11T19:40:04.138Z,7.64
2023-01-11T19:42:30.435Z,7.62
2023-01-11T19:44:56.736Z,7.63
2023-01-11T19:47:23.207Z,7.62
2023-01-11T19:49:49.613Z,7.59
2023-01-11T19:52:16.241Z,7.53
2023-01-11T19:54:43.256Z,7.55
2023-01-11T19:57:14.757Z,7.56
2023-01-11T19:59:41.494Z,7.56
2023-01-11T20:02:07.924Z,7.54
2023-01-11T20:04:34.215Z,7.53
2023-01-11T20:07:00.559Z,7.55
2023-01-11T20:09:26.901Z,7.59
2023-01-11T20:11:53.262Z,7.59
2023-01-11T20:14:20.222Z,7.60
2023-01-11T20:16:46.699Z,7.56
2023-01-11T20:19:13.222Z,7.56
2023-01-11T20:21:39.520Z,7.55
2023-01-11T20:24:06.095Z,7.54
2023-01-11T20:26:33.398Z,7.55
2023-01-11T20:29:00.841Z,7.53
2023-01-11T20:31:29.113Z,7.51
2023-01-11T20:33:55.677Z,7.50
2023-01-11T20:36:22.697Z,7.49
2023-01-11T20:38:49.029Z,7.44
2023-01-11T20:41:20.848Z,7.39
2023-01-11T20:43:47.169Z,7.38
2023-01-11T20:46:13.526Z,7.39
2023-01-11T20:48:39.831Z,7.45
2023-01-11T20:51:06.109Z,7.51
2023-01-11T20:53:32.514Z,7.53
2023-01-11T20:55:58.809Z,7.53
2023-01-11T20:58:25.119Z,7.56
2023-01-11T21:00:51.456Z,7.58
2023-01-11T21:03:17.728Z,7.64
2023-01-11T21:05:44.019Z,7.66
2023-01-11T21:08:10.412Z,7.67
2023-01-11T21:10:36.719Z,7.74
2023-01-11T21:13:03.215Z,7.72
2023-01-11T21:15:29.511Z,7.72
2023-01-11T21:17:55.802Z,7.74
2023-01-11T21:20:22.113Z,7.75
2023-01-11T21:22:48.394Z,7.70
2023-01-11T21:25:14.908Z,7.71
2023-01-11T21:27:41.342Z,7.73
2023-01-11T21:30:08.395Z,7.76
2023-01-11T21:32:34.719Z,7.74
2023-01-11T21:35:01.014Z,7.68
2023-01-11T21:37:27.284Z,7.60
2023-01-11T21:39:53.582Z,7.53
2023-01-11T21:42:19.872Z,7.49
2023-01-11T21:44:46.241Z,7.48
2023-01-11T21:47:12.534Z,7.48
2023-01-11T21:49:38.810Z,7.47
2023-01-11T21:52:05.088Z,7.49
2023-01-11T21:54:31.731Z,7.47
2023-01-11T21:56:58.088Z,7.45
2023-01-11T21:59:24.782Z,7.41
2023-01-11T22:01:51.214Z,7.42
2023-01-11T22:04:19.333Z,7.44
2023-01-11T22:06:47.439Z,7.46
2023-01-11T22:09:13.972Z,7.51
2023-01-11T22:11:40.261Z,7.52
2023-01-11T22:14:06.947Z,7.53
2023-01-11T22:16:34.068Z,7.47
2023-01-11T22:19:01.812Z,7.47
2023-01-11T22:21:28.701Z,7.50
2023-01-11T22:23:57.090Z,7.46
2023-01-11T22:26:24.269Z,7.32
2023-01-11T22:28:55.479Z,7.25
2023-01-11T22:31:21.942Z,7.18
2023-01-11T22:33:48.291Z,7.14
2023-01-11T22:36:15.421Z,7.11
2023-01-11T22:38:42.267Z,7.07
2023-01-11T22:41:09.054Z,7.06
2023-01-11T22:43:35.327Z,7.06
2023-01-11T22:46:02.219Z,7.08
2023-01-11T22:48:29.009Z,7.09
2023-01-11T22:50:55.399Z,7.18
2023-01-11T22:53:21.719Z,7.22
2023-01-11T22:55:48.121Z,7.21
2023-01-11T22:58:14.404Z,7.20
2023-01-11T23:00:40.889Z,7.16
2023-01-11T23:03:07.276Z,7.14
2023-01-11T23:05:33.632Z,7.13
2023-01-11T23:07:59.929Z,7.14
2023-01-11T23:10:26.591Z,7.14
2023-01-11T23:12:52.904Z,7.12
2023-01-11T23:15:19.274Z,7.09
2023-01-11T23:17:46.971Z,7.09
2023-01-11T23:20:13.357Z,7.04
2023-01-11T23:22:39.763Z,6.97
2023-01-11T23:25:06.775Z,6.92
2023-01-11T23:27:33.080Z,6.89
2023-01-11T23:29:59.405Z,6.88
2023-01-11T23:32:25.743Z,6.87
2023-01-11T23:34:52.083Z,6.91
2023-01-11T23:37:18.460Z,6.93
2023-01-11T23:39:44.922Z,6.95
2023-01-11T23:42:11.453Z,6.96
2023-01-11T23:44:37.842Z,7.02
2023-01-11T23:47:04.229Z,7.07
2023-01-11T23:49:31.887Z,7.09
2023-01-11T23:51:58.697Z,7.18
2023-01-11T23:54:30.268Z,7.21
2023-01-11T23:56:57.807Z,7.24
2023-01-11T23:59:24.385Z,7.26
